Time;durP1;ratioP1;P1;durP2;ratioP2;P2;SDS_P1;SDS_P2;PMS_P1;PMS_P2;Temp;Humidity;BMP_temperature;BMP_pressure;BME280_temperature;BME280_humidity;BME280_pressure;Samples;Min_cycle;Max_cycle;Signal;HPM_P1;HPM_P2
2021/12/17 00:00:32;;;;;;;17.30;8.18;;;;;;;;;;6245117;28;20029;-72
2021/12/17 00:03:42;;;;;;;18.23;7.50;;;;;;;;;;6244527;28;20413;-72
2021/12/17 00:06:47;;;;;;;16.65;7.82;;;;;;;;;;6245023;28;20032;-72
2021/12/17 00:09:49;;;;;;;16.02;6.93;;;;;;;;;;6244491;28;20498;-72
2021/12/17 00:12:51;;;;;;;14.38;6.53;;;;;;;;;;6244705;28;20504;-72
2021/12/17 00:15:52;;;;;;;21.13;9.13;;;;;;;;;;6242655;28;20053;-72
2021/12/17 00:48:37;;;;;;;16.58;6.82;;;;;;;;;;6243868;28;20452;-72
2021/12/17 00:54:56;;;;;;;13.15;7.38;;;;;;;;;;6219257;28;20433;-72
2021/12/17 00:57:57;;;;;;;20.95;7.32;;;;;;;;;;6234518;28;20033;-72
2021/12/17 01:00:57;;;;;;;16.73;7.25;;;;;;;;;;6234228;28;20036;-72
2021/12/17 01:03:57;;;;;;;14.02;6.10;;;;;;;;;;6218908;28;20036;-72
2021/12/17 01:06:58;;;;;;;15.40;6.82;;;;;;;;;;6218554;28;20032;-72
2021/12/17 01:09:58;;;;;;;11.90;6.05;;;;;;;;;;6219021;28;20050;-73
2021/12/17 01:12:58;;;;;;;15.50;5.45;;;;;;;;;;6219105;28;20093;-73
2021/12/17 01:15:59;;;;;;;11.93;5.57;;;;;;;;;;6233363;28;20018;-73
2021/12/17 01:19:14;;;;;;;14.43;5.45;;;;;;;;;;6219102;28;20017;-73
2021/12/17 01:35:31;;;;;;;14.80;5.90;;;;;;;;;;6218593;28;20034;-73
2021/12/17 01:44:56;;;;;;;19.35;6.78;;;;;;;;;;6241739;28;20030;-73
2021/12/17 01:47:59;;;;;;;17.83;7.35;;;;;;;;;;6240983;28;20045;-73
2021/12/17 01:55:49;;;;;;;15.27;7.13;;;;;;;;;;6243142;28;20052;-73
2021/12/17 02:01:12;;;;;;;17.48;6.30;;;;;;;;;;6233450;28;20561;-73
2021/12/17 02:04:12;;;;;;;23.10;8.18;;;;;;;;;;6239167;28;20031;-73
2021/12/17 02:07:12;;;;;;;19.35;9.48;;;;;;;;;;6242686;28;20034;-73
2021/12/17 02:19:47;;;;;;;28.85;9.95;;;;;;;;;;6222496;28;20026;-73
2021/12/17 02:32:42;;;;;;;13.77;6.55;;;;;;;;;;6222611;28;20038;-73
2021/12/17 02:35:45;;;;;;;22.13;7.22;;;;;;;;;;6222197;28;20073;-73
2021/12/17 02:38:45;;;;;;;16.10;5.22;;;;;;;;;;6223607;28;20021;-73
2021/12/17 02:48:24;;;;;;;14.32;5.45;;;;;;;;;;6247437;28;20490;-73
2021/12/17 02:51:25;;;;;;;14.00;6.53;;;;;;;;;;6246554;28;20103;-73
2021/12/17 02:54:26;;;;;;;13.48;5.32;;;;;;;;;;6245623;28;20140;-73
2021/12/17 02:57:26;;;;;;;15.30;5.63;;;;;;;;;;6246443;28;20322;-73
2021/12/17 03:00:27;;;;;;;14.10;6.97;;;;;;;;;;6246615;28;20092;-73
2021/12/17 03:03:31;;;;;;;13.02;5.25;;;;;;;;;;6246415;28;20096;-73
2021/12/17 03:06:32;;;;;;;12.50;5.13;;;;;;;;;;6235703;28;20100;-73
2021/12/17 03:09:52;;;;;;;18.10;6.68;;;;;;;;;;6245552;28;20041;-73
2021/12/17 03:12:58;;;;;;;15.27;5.45;;;;;;;;;;6246090;28;20043;-72
2021/12/17 03:16:06;;;;;;;18.00;7.15;;;;;;;;;;6245644;28;20025;-72
2021/12/17 03:19:23;;;;;;;15.65;5.22;;;;;;;;;;6246297;28;20021;-72
2021/12/17 03:25:42;;;;;;;11.55;4.47;;;;;;;;;;6245232;28;20069;-72
2021/12/17 03:28:44;;;;;;;11.40;4.82;;;;;;;;;;6245123;28;20039;-72
2021/12/17 03:31:44;;;;;;;11.02;5.03;;;;;;;;;;6245509;28;20029;-72
2021/12/17 03:34:45;;;;;;;16.63;5.65;;;;;;;;;;6245485;28;20045;-72
2021/12/17 03:37:45;;;;;;;16.65;5.95;;;;;;;;;;6245568;28;20033;-72
2021/12/17 03:40:46;;;;;;;11.05;4.85;;;;;;;;;;6245137;28;20033;-72
2021/12/17 03:43:48;;;;;;;11.27;5.27;;;;;;;;;;6245440;28;20151;-72
2021/12/17 03:46:48;;;;;;;16.98;5.72;;;;;;;;;;6245960;28;20032;-72
2021/12/17 03:49:49;;;;;;;12.60;5.28;;;;;;;;;;6243886;28;20389;-72
2021/12/17 03:52:49;;;;;;;14.27;5.55;;;;;;;;;;6244197;28;20025;-72
2021/12/17 03:55:50;;;;;;;16.58;7.25;;;;;;;;;;6244910;28;20092;-72
2021/12/17 03:58:52;;;;;;;17.20;6.10;;;;;;;;;;6243618;28;20018;-73
2021/12/17 04:01:53;;;;;;;13.80;6.75;;;;;;;;;;6244988;28;20104;-72
2021/12/17 04:04:53;;;;;;;12.38;4.85;;;;;;;;;;6244223;28;20126;-72
2021/12/17 04:07:53;;;;;;;13.20;5.10;;;;;;;;;;6244771;28;20452;-72
2021/12/17 04:11:02;;;;;;;17.80;5.88;;;;;;;;;;6244950;28;20132;-72
2021/12/17 04:14:02;;;;;;;15.10;4.50;;;;;;;;;;6244771;28;20473;-72
2021/12/17 04:17:05;;;;;;;14.52;6.20;;;;;;;;;;6242810;28;20107;-72
2021/12/17 04:20:06;;;;;;;17.65;5.30;;;;;;;;;;6243369;28;20032;-72
2021/12/17 04:23:06;;;;;;;12.80;6.28;;;;;;;;;;6260180;28;20030;-72
2021/12/17 04:26:06;;;;;;;11.63;4.47;;;;;;;;;;6244060;28;20052;-73
2021/12/17 04:29:07;;;;;;;13.73;5.13;;;;;;;;;;6243007;28;20052;-72
2021/12/17 04:32:07;;;;;;;13.10;6.93;;;;;;;;;;6244219;28;20022;-72
2021/12/17 04:35:08;;;;;;;30.60;6.82;;;;;;;;;;6243987;28;20079;-72
2021/12/17 04:38:10;;;;;;;13.27;4.53;;;;;;;;;;6244132;28;20026;-72
2021/12/17 04:44:32;;;;;;;17.70;6.75;;;;;;;;;;6225211;28;20037;-72
2021/12/17 04:57:32;;;;;;;9.82;4.97;;;;;;;;;;6220036;28;20034;-72
2021/12/17 05:00:33;;;;;;;14.52;5.40;;;;;;;;;;6219354;28;20026;-72
2021/12/17 05:03:33;;;;;;;15.60;4.35;;;;;;;;;;6234168;28;20033;-73
2021/12/17 05:06:33;;;;;;;15.60;6.15;;;;;;;;;;6218843;28;20030;-73
2021/12/17 05:09:46;;;;;;;17.83;6.13;;;;;;;;;;6217350;28;20037;-72
2021/12/17 05:19:43;;;;;;;12.85;5.43;;;;;;;;;;6219120;28;20042;-72
2021/12/17 05:22:44;;;;;;;25.83;6.00;;;;;;;;;;6226642;28;20018;-72
2021/12/17 05:25:44;;;;;;;12.68;5.35;;;;;;;;;;6243132;28;20381;-72
2021/12/17 05:28:45;;;;;;;13.77;6.57;;;;;;;;;;6233447;28;20107;-72
2021/12/17 05:31:45;;;;;;;15.55;5.30;;;;;;;;;;6237936;28;20108;-72
2021/12/17 05:34:45;;;;;;;16.77;6.78;;;;;;;;;;6229506;28;20540;-72
2021/12/17 05:37:45;;;;;;;14.85;5.88;;;;;;;;;;6234992;28;20018;-72
2021/12/17 05:40:46;;;;;;;14.32;6.00;;;;;;;;;;6241948;28;20097;-72
2021/12/17 05:43:54;;;;;;;10.40;4.60;;;;;;;;;;6225161;28;20026;-73
2021/12/17 05:46:55;;;;;;;14.32;5.68;;;;;;;;;;6241404;28;20108;-73
2021/12/17 05:49:55;;;;;;;17.95;6.20;;;;;;;;;;6224555;28;20021;-73
2021/12/17 05:52:55;;;;;;;14.65;5.93;;;;;;;;;;6244114;28;20056;-73
2021/12/17 05:55:56;;;;;;;12.73;5.28;;;;;;;;;;6243782;28;20041;-73
2021/12/17 05:58:57;;;;;;;12.88;5.05;;;;;;;;;;6234393;28;20018;-73
2021/12/17 06:01:57;;;;;;;13.52;4.57;;;;;;;;;;6250225;28;20144;-73
2021/12/17 06:04:57;;;;;;;10.60;5.78;;;;;;;;;;6238782;28;20049;-73
2021/12/17 06:07:58;;;;;;;18.27;6.15;;;;;;;;;;6241268;28;20025;-73
2021/12/17 06:10:59;;;;;;;18.88;5.88;;;;;;;;;;6230078;28;20052;-73
2021/12/17 06:13:59;;;;;;;13.43;5.35;;;;;;;;;;6235850;28;20018;-73
2021/12/17 06:16:59;;;;;;;14.82;5.50;;;;;;;;;;6247601;28;20013;-73
2021/12/17 06:20:00;;;;;;;15.48;6.55;;;;;;;;;;6235552;28;20061;-73
2021/12/17 06:23:00;;;;;;;16.73;6.03;;;;;;;;;;6240183;28;20076;-73
2021/12/17 06:26:00;;;;;;;14.70;4.90;;;;;;;;;;6246587;28;20103;-73
2021/12/17 06:29:01;;;;;;;19.50;5.97;;;;;;;;;;6238122;28;20026;-73
2021/12/17 06:32:01;;;;;;;22.05;6.10;;;;;;;;;;6227635;28;20021;-73
2021/12/17 06:35:02;;;;;;;22.80;6.35;;;;;;;;;;6234149;28;20026;-73
2021/12/17 06:38:04;;;;;;;12.73;5.22;;;;;;;;;;6239217;28;20014;-73
2021/12/17 06:41:04;;;;;;;;;;;;;;;;;;6246044;28;20068;-73
2021/12/17 06:44:07;;;;;;;11.73;5.15;;;;;;;;;;6242187;28;19938;-73
2021/12/17 07:10:29;;;;;;;12.73;5.47;;;;;;;;;;6240525;28;20068;-73
2021/12/17 07:23:25;;;;;;;16.52;7.75;;;;;;;;;;6238342;28;20033;-73
2021/12/17 07:36:07;;;;;;;16.60;5.55;;;;;;;;;;6244454;28;20030;-73
2021/12/17 07:39:08;;;;;;;22.05;5.40;;;;;;;;;;6243637;28;20056;-73
2021/12/17 07:42:08;;;;;;;17.23;5.55;;;;;;;;;;6245162;28;20413;-73
2021/12/17 07:45:09;;;;;;;18.27;7.35;;;;;;;;;;6237267;28;20022;-73
2021/12/17 07:48:09;;;;;;;18.23;6.65;;;;;;;;;;6238643;28;20033;-73
2021/12/17 07:51:11;;;;;;;29.20;11.63;;;;;;;;;;6244391;28;20033;-73
2021/12/17 07:54:12;;;;;;;21.65;7.47;;;;;;;;;;6240061;28;20125;-73
2021/12/17 07:57:12;;;;;;;17.38;7.90;;;;;;;;;;6243579;28;20120;-73
2021/12/17 08:00:13;;;;;;;27.40;9.25;;;;;;;;;;6245432;28;20352;-73
2021/12/17 08:03:14;;;;;;;22.20;7.95;;;;;;;;;;6221737;28;20022;-73
2021/12/17 08:06:15;;;;;;;20.67;7.23;;;;;;;;;;6220770;28;20045;-73
2021/12/17 08:09:15;;;;;;;25.50;8.00;;;;;;;;;;6220416;28;20069;-73
2021/12/17 08:12:17;;;;;;;21.10;7.07;;;;;;;;;;6219383;28;20508;-73
2021/12/17 08:15:22;;;;;;;22.27;7.80;;;;;;;;;;6219598;28;20524;-73
2021/12/17 08:18:33;;;;;;;29.52;10.45;;;;;;;;;;6219154;28;20470;-73
2021/12/17 08:25:08;;;;;;;19.05;8.02;;;;;;;;;;6245176;28;20034;-73
2021/12/17 08:28:12;;;;;;;22.42;9.23;;;;;;;;;;6230171;28;20504;-73
2021/12/17 08:31:12;;;;;;;25.35;8.95;;;;;;;;;;6219437;28;20021;-73
2021/12/17 08:34:12;;;;;;;15.35;6.57;;;;;;;;;;6218547;28;20097;-73
2021/12/17 08:37:13;;;;;;;31.52;10.05;;;;;;;;;;6217868;28;20022;-73
2021/12/17 08:40:13;;;;;;;14.88;6.78;;;;;;;;;;6241624;28;20440;-73
2021/12/17 08:43:13;;;;;;;15.93;5.25;;;;;;;;;;6230828;28;20348;-73
2021/12/17 08:46:14;;;;;;;18.60;6.22;;;;;;;;;;6236140;28;20025;-73
2021/12/17 08:49:14;;;;;;;19.25;8.50;;;;;;;;;;6256098;28;20034;-73
2021/12/17 08:52:15;;;;;;;21.67;8.70;;;;;;;;;;6243353;28;20025;-73
2021/12/17 08:55:16;;;;;;;14.37;6.07;;;;;;;;;;6243973;28;20593;-73
2021/12/17 08:58:16;;;;;;;13.68;6.57;;;;;;;;;;6241366;28;20037;-73
2021/12/17 09:01:17;;;;;;;14.75;5.18;;;;;;;;;;6230448;28;20034;-73
2021/12/17 09:04:17;;;;;;;23.00;6.45;;;;;;;;;;6219642;28;20026;-73
2021/12/17 09:07:17;;;;;;;17.15;5.28;;;;;;;;;;6248656;28;20467;-73
2021/12/17 09:10:22;;;;;;;15.13;6.30;;;;;;;;;;6234681;28;20103;-73
2021/12/17 09:13:25;;;;;;;18.88;5.03;;;;;;;;;;6251023;28;20117;-73
2021/12/17 09:16:26;;;;;;;20.65;8.07;;;;;;;;;;6224190;28;20029;-73
2021/12/17 09:19:26;;;;;;;14.52;6.82;;;;;;;;;;6217086;28;20017;-73
2021/12/17 09:22:26;;;;;;;15.80;5.47;;;;;;;;;;6216990;28;20401;-73
2021/12/17 09:25:28;;;;;;;20.20;5.47;;;;;;;;;;6215925;28;20401;-73
2021/12/17 09:28:31;;;;;;;15.63;6.03;;;;;;;;;;6232004;28;20524;-73
2021/12/17 09:31:32;;;;;;;13.43;5.10;;;;;;;;;;6239409;28;20034;-73
2021/12/17 09:34:32;;;;;;;14.50;4.95;;;;;;;;;;6242166;28;20033;-73
2021/12/17 09:37:32;;;;;;;17.65;6.85;;;;;;;;;;6229508;28;20247;-73
2021/12/17 09:40:33;;;;;;;15.52;5.50;;;;;;;;;;6234260;28;20075;-73
2021/12/17 09:43:35;;;;;;;16.73;5.93;;;;;;;;;;6230276;28;20026;-73
2021/12/17 09:46:36;;;;;;;14.05;5.20;;;;;;;;;;6226988;28;20029;-73
2021/12/17 09:49:37;;;;;;;22.67;9.18;;;;;;;;;;6242386;28;20048;-73
2021/12/17 09:52:38;;;;;;;21.38;10.00;;;;;;;;;;6242738;28;20025;-73
2021/12/17 09:55:38;;;;;;;27.30;8.10;;;;;;;;;;6242353;28;20393;-73
2021/12/17 09:58:38;;;;;;;17.05;6.38;;;;;;;;;;6242264;28;20013;-73
2021/12/17 10:01:39;;;;;;;10.77;5.30;;;;;;;;;;6238765;28;20654;-73
2021/12/17 10:04:41;;;;;;;18.65;6.15;;;;;;;;;;6216464;28;20021;-73
2021/12/17 10:07:43;;;;;;;19.73;7.18;;;;;;;;;;6214259;28;20033;-73
2021/12/17 10:10:48;;;;;;;13.77;6.32;;;;;;;;;;6216253;28;20050;-73
2021/12/17 10:13:48;;;;;;;13.57;4.63;;;;;;;;;;6217641;28;20029;-73
2021/12/17 10:16:49;;;;;;;16.98;6.70;;;;;;;;;;6241276;28;20021;-73
2021/12/17 10:19:50;;;;;;;10.05;3.92;;;;;;;;;;6239446;28;20013;-73
2021/12/17 10:23:04;;;;;;;16.48;6.03;;;;;;;;;;6242628;28;20053;-73
2021/12/17 10:26:05;;;;;;;19.15;5.38;;;;;;;;;;6241491;28;20022;-73
2021/12/17 10:29:05;;;;;;;17.20;5.85;;;;;;;;;;6236006;28;20043;-73
2021/12/17 10:32:07;;;;;;;16.63;4.85;;;;;;;;;;6230699;28;20022;-73
2021/12/17 10:35:12;;;;;;;20.40;5.03;;;;;;;;;;6222255;28;20028;-73
2021/12/17 10:38:15;;;;;;;16.52;6.50;;;;;;;;;;6220853;28;20022;-73
2021/12/17 10:41:15;;;;;;;17.65;6.85;;;;;;;;;;6240903;28;20044;-73
2021/12/17 10:44:16;;;;;;;22.95;5.57;;;;;;;;;;6237339;28;20084;-73
2021/12/17 10:47:31;;;;;;;20.13;6.07;;;;;;;;;;6241772;28;20022;-73
2021/12/17 10:50:31;;;;;;;23.60;6.20;;;;;;;;;;6244877;28;20049;-73
2021/12/17 10:53:32;;;;;;;13.52;5.18;;;;;;;;;;6245617;28;20083;-74
2021/12/17 10:56:33;;;;;;;13.77;5.22;;;;;;;;;;6243373;28;20430;-73
2021/12/17 10:59:34;;;;;;;19.27;7.27;;;;;;;;;;6246940;28;20029;-73
2021/12/17 11:02:37;;;;;;;16.48;5.65;;;;;;;;;;6246095;28;20347;-73
2021/12/17 11:05:37;;;;;;;16.65;5.78;;;;;;;;;;6222135;28;20030;-73
2021/12/17 11:08:45;;;;;;;17.08;6.82;;;;;;;;;;6221734;28;20025;-73
2021/12/17 11:11:47;;;;;;;13.13;4.75;;;;;;;;;;6242292;28;20096;-73
2021/12/17 11:14:47;;;;;;;11.52;4.10;;;;;;;;;;6239103;28;20029;-73
2021/12/17 11:18:02;;;;;;;12.13;5.63;;;;;;;;;;6243489;28;20048;-73
2021/12/17 11:21:02;;;;;;;13.30;5.60;;;;;;;;;;6230029;28;20124;-73
2021/12/17 11:24:02;;;;;;;14.63;4.85;;;;;;;;;;6249806;28;20037;-73
2021/12/17 11:27:04;;;;;;;10.80;5.38;;;;;;;;;;6232940;28;20033;-73
2021/12/17 11:30:09;;;;;;;9.70;4.20;;;;;;;;;;6244609;28;20033;-73
2021/12/17 11:33:09;;;;;;;15.75;5.65;;;;;;;;;;6252723;28;20080;-73
2021/12/17 11:36:09;;;;;;;13.27;4.70;;;;;;;;;;6232231;28;20477;-73
2021/12/17 11:39:16;;;;;;;14.35;7.00;;;;;;;;;;6236889;28;20017;-73
2021/12/17 11:42:18;;;;;;;10.38;5.53;;;;;;;;;;6236434;28;20088;-73
2021/12/17 11:45:23;;;;;;;11.65;6.20;;;;;;;;;;6235333;28;20041;-73
2021/12/17 11:48:25;;;;;;;18.25;7.40;;;;;;;;;;6232943;28;20025;-73
2021/12/17 11:51:30;;;;;;;18.65;6.97;;;;;;;;;;6245717;28;20026;-73
2021/12/17 11:54:31;;;;;;;19.95;7.88;;;;;;;;;;6229882;28;20024;-73
2021/12/17 11:57:40;;;;;;;13.15;6.30;;;;;;;;;;6227053;28;20033;-74
2021/12/17 12:00:40;;;;;;;15.88;7.53;;;;;;;;;;6239582;28;20014;-73
2021/12/17 12:03:40;;;;;;;22.53;9.90;;;;;;;;;;6230573;28;20385;-73
2021/12/17 12:06:40;;;;;;;24.83;8.95;;;;;;;;;;6231479;28;20636;-73
2021/12/17 12:09:57;;;;;;;18.20;8.18;;;;;;;;;;6231974;28;20042;-73
2021/12/17 12:12:57;;;;;;;28.42;10.52;;;;;;;;;;6230881;28;20449;-73
2021/12/17 12:16:02;;;;;;;21.23;8.63;;;;;;;;;;6233603;28;20025;-73
2021/12/17 12:19:07;;;;;;;15.70;7.53;;;;;;;;;;6234663;28;20013;-74
2021/12/17 12:22:09;;;;;;;31.75;12.23;;;;;;;;;;6229638;28;20018;-73
2021/12/17 12:25:28;;;;;;;19.00;9.25;;;;;;;;;;6241087;28;20128;-73
2021/12/17 12:31:49;;;;;;;26.55;11.75;;;;;;;;;;6233190;28;20116;-73
2021/12/17 12:34:50;;;;;;;19.55;8.68;;;;;;;;;;6232437;28;20022;-73
2021/12/17 12:38:10;;;;;;;22.35;8.80;;;;;;;;;;6222696;28;20080;-73
2021/12/17 12:41:14;;;;;;;21.50;9.20;;;;;;;;;;6259470;28;20436;-73
2021/12/17 12:44:14;;;;;;;30.25;12.55;;;;;;;;;;6242821;28;20030;-73
2021/12/17 12:47:22;;;;;;;22.80;9.80;;;;;;;;;;6231256;28;20474;-73
2021/12/17 12:50:25;;;;;;;18.60;9.10;;;;;;;;;;6248192;28;20033;-73
2021/12/17 12:53:26;;;;;;;17.63;9.15;;;;;;;;;;6239002;28;20342;-73
2021/12/17 12:56:27;;;;;;;22.98;9.95;;;;;;;;;;6234654;28;20032;-73
2021/12/17 12:59:29;;;;;;;30.65;16.27;;;;;;;;;;6216020;28;20017;-73
2021/12/17 13:02:29;;;;;;;24.38;12.35;;;;;;;;;;6222989;28;20494;-73
2021/12/17 13:05:30;;;;;;;41.20;18.10;;;;;;;;;;6235630;28;20132;-73
2021/12/17 13:08:31;;;;;;;52.58;24.30;;;;;;;;;;6254946;28;20436;-73
2021/12/17 13:11:31;;;;;;;50.55;22.55;;;;;;;;;;6232175;28;20517;-73
2021/12/17 13:14:31;;;;;;;45.38;21.88;;;;;;;;;;6224517;28;20483;-73
2021/12/17 13:20:27;;;;;;;38.92;16.63;;;;;;;;;;6223592;28;20022;-73
2021/12/17 13:24:20;;;;;;;52.92;18.67;;;;;;;;;;6238007;28;20123;-72
2021/12/17 13:27:20;;;;;;;33.80;18.25;;;;;;;;;;6219879;28;20128;-72
2021/12/17 13:30:24;;;;;;;31.42;13.48;;;;;;;;;;6224933;28;20018;-73
2021/12/17 13:33:35;;;;;;;66.75;25.75;;;;;;;;;;6230269;28;20429;-73
2021/12/17 13:36:36;;;;;;;45.00;16.20;;;;;;;;;;6238931;28;20018;-73
2021/12/17 13:39:36;;;;;;;72.47;24.92;;;;;;;;;;6229265;28;20649;-73
2021/12/17 13:42:38;;;;;;;65.00;23.98;;;;;;;;;;6241952;28;20017;-73
2021/12/17 13:45:38;;;;;;;98.15;34.10;;;;;;;;;;6240622;28;20048;-73
2021/12/17 13:48:38;;;;;;;66.75;20.88;;;;;;;;;;6241057;28;20014;-73
2021/12/17 13:51:39;;;;;;;50.88;15.77;;;;;;;;;;6228577;28;20105;-73
2021/12/17 13:54:39;;;;;;;40.25;17.95;;;;;;;;;;6221478;28;20018;-73
2021/12/17 13:57:40;;;;;;;56.05;20.63;;;;;;;;;;6215701;28;20024;-73
2021/12/17 14:00:42;;;;;;;51.70;18.88;;;;;;;;;;6219211;28;20505;-73
2021/12/17 14:03:45;;;;;;;54.83;17.63;;;;;;;;;;6240103;28;20028;-73
2021/12/17 14:06:52;;;;;;;48.35;18.25;;;;;;;;;;6238675;28;20025;-73
2021/12/17 14:09:59;;;;;;;36.55;14.77;;;;;;;;;;6240711;28;20041;-73
2021/12/17 14:13:01;;;;;;;51.53;17.38;;;;;;;;;;6242693;28;20508;-73
2021/12/17 14:16:02;;;;;;;49.65;19.15;;;;;;;;;;6247702;28;20013;-73
2021/12/17 14:19:03;;;;;;;42.92;20.10;;;;;;;;;;6247521;28;20140;-73
2021/12/17 14:22:18;;;;;;;38.63;17.13;;;;;;;;;;6248175;28;20029;-73
2021/12/17 14:25:41;;;;;;;36.45;16.90;;;;;;;;;;6230107;28;20027;-73
2021/12/17 14:28:41;;;;;;;41.97;17.15;;;;;;;;;;6238104;28;20393;-73
2021/12/17 14:31:41;;;;;;;28.00;14.50;;;;;;;;;;6223036;28;20017;-73
2021/12/17 14:34:42;;;;;;;39.50;17.08;;;;;;;;;;6218789;28;20014;-73
2021/12/17 14:37:46;;;;;;;39.20;20.67;;;;;;;;;;6220126;28;20337;-73
2021/12/17 14:40:54;;;;;;;63.35;27.95;;;;;;;;;;6221522;28;20080;-73
2021/12/17 14:44:07;;;;;;;44.17;19.67;;;;;;;;;;6223148;28;20481;-73
2021/12/17 14:47:19;;;;;;;40.03;18.98;;;;;;;;;;6224313;28;20128;-73
2021/12/17 15:03:48;;;;;;;38.85;20.15;;;;;;;;;;6244682;28;20025;-73
2021/12/17 15:06:48;;;;;;;36.40;19.48;;;;;;;;;;6246277;28;20083;-73
2021/12/17 15:09:48;;;;;;;32.72;13.43;;;;;;;;;;6241067;28;20033;-73
2021/12/17 15:13:00;;;;;;;42.05;21.00;;;;;;;;;;6226119;28;20036;-73
2021/12/17 15:16:02;;;;;;;32.85;16.77;;;;;;;;;;6236779;28;20022;-73
2021/12/17 15:19:02;;;;;;;34.35;16.25;;;;;;;;;;6229625;28;20010;-73
2021/12/17 15:22:03;;;;;;;31.65;13.25;;;;;;;;;;6230055;28;20482;-73
2021/12/17 15:25:05;;;;;;;24.52;10.95;;;;;;;;;;6223311;28;20065;-73
2021/12/17 15:28:05;;;;;;;28.77;11.85;;;;;;;;;;6240951;28;20496;-73
2021/12/17 15:31:06;;;;;;;24.48;11.80;;;;;;;;;;6244240;28;20097;-73
2021/12/17 15:34:06;;;;;;;31.48;14.57;;;;;;;;;;6243746;28;20118;-73
2021/12/17 15:37:07;;;;;;;30.77;15.80;;;;;;;;;;6243998;28;20073;-73
2021/12/17 15:40:08;;;;;;;94.57;45.22;;;;;;;;;;6243921;28;20049;-73
2021/12/17 15:43:08;;;;;;;91.30;40.33;;;;;;;;;;6243915;28;20018;-73
2021/12/17 15:46:09;;;;;;;68.28;27.58;;;;;;;;;;6243474;28;20272;-73
2021/12/17 15:49:09;;;;;;;29.80;12.77;;;;;;;;;;6244211;28;20018;-73
2021/12/17 15:52:10;;;;;;;32.55;15.52;;;;;;;;;;6245742;28;20017;-73
2021/12/17 15:55:10;;;;;;;28.20;11.48;;;;;;;;;;6241115;28;20354;-73
2021/12/17 15:58:11;;;;;;;22.70;11.30;;;;;;;;;;6228843;28;20364;-73
2021/12/17 16:01:11;;;;;;;27.45;12.60;;;;;;;;;;6232096;28;20044;-73
2021/12/17 16:04:13;;;;;;;37.90;16.88;;;;;;;;;;6238038;28;20037;-73
2021/12/17 16:07:14;;;;;;;50.17;21.23;;;;;;;;;;6228854;28;20032;-73
2021/12/17 16:23:29;;;;;;;36.53;17.02;;;;;;;;;;6144069;28;20063;-73
2021/12/17 16:26:30;;;;;;;25.88;13.48;;;;;;;;;;6240316;28;20021;-73
2021/12/17 16:29:30;;;;;;;23.15;12.50;;;;;;;;;;6231850;28;20025;-73
2021/12/17 16:32:30;;;;;;;23.85;10.48;;;;;;;;;;6230896;28;20029;-73
2021/12/17 16:35:30;;;;;;;32.38;13.30;;;;;;;;;;6237902;28;20067;-73
2021/12/17 16:38:31;;;;;;;28.42;12.07;;;;;;;;;;6218388;28;20021;-73
2021/12/17 16:41:32;;;;;;;25.45;10.15;;;;;;;;;;6241795;28;20029;-73
2021/12/17 16:44:47;;;;;;;27.17;10.45;;;;;;;;;;6242989;28;20425;-73
2021/12/17 16:47:48;;;;;;;26.42;10.82;;;;;;;;;;6242549;28;20104;-73
2021/12/17 16:50:49;;;;;;;28.38;12.20;;;;;;;;;;6242789;28;20022;-73
2021/12/17 16:53:49;;;;;;;24.23;9.93;;;;;;;;;;6243258;28;20056;-73
2021/12/17 16:56:49;;;;;;;25.48;11.23;;;;;;;;;;6242768;28;20013;-73
2021/12/17 16:59:50;;;;;;;20.98;8.98;;;;;;;;;;6241949;28;20516;-73
2021/12/17 17:02:53;;;;;;;24.38;10.70;;;;;;;;;;6257824;28;20026;-73
2021/12/17 17:05:53;;;;;;;22.45;9.85;;;;;;;;;;6234316;28;20026;-73
2021/12/17 17:09:00;;;;;;;21.80;10.57;;;;;;;;;;6242283;28;20033;-73
2021/12/17 17:12:06;;;;;;;31.30;11.85;;;;;;;;;;6236169;28;20041;-73
2021/12/17 17:15:06;;;;;;;20.50;10.07;;;;;;;;;;6218321;28;20014;-73
2021/12/17 17:18:07;;;;;;;19.25;8.65;;;;;;;;;;6216013;28;20394;-73
2021/12/17 17:21:08;;;;;;;22.27;8.82;;;;;;;;;;6218040;28;20519;-73
2021/12/17 17:24:10;;;;;;;20.83;8.25;;;;;;;;;;6236684;28;20022;-73
2021/12/17 17:27:10;;;;;;;;;;;;;;;;;;6234804;28;20037;-73
2021/12/17 17:30:10;;;;;;;15.85;7.72;;;;;;;;;;6228927;28;19913;-73
2021/12/17 17:33:12;;;;;;;21.00;9.02;;;;;;;;;;6229674;28;20029;-73
2021/12/17 17:36:12;;;;;;;20.92;7.70;;;;;;;;;;6233453;28;20022;-73
2021/12/17 17:39:13;;;;;;;18.42;7.55;;;;;;;;;;6230450;28;20489;-73
2021/12/17 17:42:14;;;;;;;25.37;8.93;;;;;;;;;;6241885;28;20112;-73
2021/12/17 17:45:14;;;;;;;16.45;9.18;;;;;;;;;;6241958;28;20036;-73
2021/12/17 17:48:15;;;;;;;22.17;7.85;;;;;;;;;;6239502;28;20116;-73
2021/12/17 17:51:15;;;;;;;23.80;9.60;;;;;;;;;;6239116;28;20017;-73
2021/12/17 17:54:16;;;;;;;28.17;9.48;;;;;;;;;;6240177;28;20013;-73
2021/12/17 17:57:16;;;;;;;16.73;8.52;;;;;;;;;;6241540;28;20041;-73
2021/12/17 18:00:18;;;;;;;19.92;7.75;;;;;;;;;;6242007;28;20435;-73
2021/12/17 18:03:19;;;;;;;10.77;5.25;;;;;;;;;;6241329;28;20018;-73
2021/12/17 18:06:19;;;;;;;16.13;6.80;;;;;;;;;;6241814;28;20022;-73
2021/12/17 18:09:19;;;;;;;29.17;12.20;;;;;;;;;;6240732;28;20021;-73
2021/12/17 18:12:20;;;;;;;16.73;8.73;;;;;;;;;;6239926;28;20065;-73
2021/12/17 18:15:21;;;;;;;23.52;8.23;;;;;;;;;;6242912;28;20029;-73
2021/12/17 18:18:22;;;;;;;16.58;6.43;;;;;;;;;;6242481;28;20071;-73
2021/12/17 18:21:22;;;;;;;16.88;6.57;;;;;;;;;;6258129;28;20030;-73
2021/12/17 18:24:22;;;;;;;17.65;6.88;;;;;;;;;;6243637;28;20457;-73
2021/12/17 18:27:24;;;;;;;11.48;6.13;;;;;;;;;;6242261;28;20022;-73
2021/12/17 18:30:24;;;;;;;12.57;5.93;;;;;;;;;;6241254;28;20022;-73
2021/12/17 18:33:25;;;;;;;20.75;6.85;;;;;;;;;;6241285;28;20025;-73
2021/12/17 18:36:25;;;;;;;20.17;7.53;;;;;;;;;;6241493;28;20104;-73
2021/12/17 18:39:25;;;;;;;24.70;9.90;;;;;;;;;;6241756;28;20101;-73
2021/12/17 18:45:45;;;;;;;16.80;7.05;;;;;;;;;;6243210;28;20029;-73
2021/12/17 18:48:45;;;;;;;14.85;6.03;;;;;;;;;;6241047;28;20029;-73
2021/12/17 18:51:46;;;;;;;17.60;7.28;;;;;;;;;;6241222;28;20030;-73
2021/12/17 18:54:46;;;;;;;19.25;6.13;;;;;;;;;;6242434;28;20096;-73
2021/12/17 18:57:47;;;;;;;17.02;6.65;;;;;;;;;;6232872;28;20018;-73
2021/12/17 19:00:47;;;;;;;17.70;6.13;;;;;;;;;;6245233;28;20148;-73
2021/12/17 19:03:48;;;;;;;17.15;5.53;;;;;;;;;;6259073;28;20017;-73
2021/12/17 19:06:51;;;;;;;15.32;6.20;;;;;;;;;;6230996;28;20655;-73
2021/12/17 19:09:52;;;;;;;15.45;6.50;;;;;;;;;;6244548;28;20137;-73
2021/12/17 19:12:52;;;;;;;31.17;8.80;;;;;;;;;;6229782;28;20485;-73
2021/12/17 19:15:54;;;;;;;14.65;6.88;;;;;;;;;;6222258;28;20024;-73
2021/12/17 19:22:16;;;;;;;19.23;8.15;;;;;;;;;;6245016;28;20028;-73
2021/12/17 19:25:18;;;;;;;21.15;6.13;;;;;;;;;;6246232;28;20021;-73
2021/12/17 19:28:18;;;;;;;14.27;6.77;;;;;;;;;;6226745;28;20321;-73
2021/12/17 19:31:18;;;;;;;13.55;6.10;;;;;;;;;;6233232;28;20021;-73
2021/12/17 19:34:18;;;;;;;15.10;5.90;;;;;;;;;;6234968;28;20097;-73
2021/12/17 19:37:19;;;;;;;19.90;5.78;;;;;;;;;;6240490;28;20026;-73
2021/12/17 19:40:20;;;;;;;24.60;6.00;;;;;;;;;;6235398;28;20528;-73
2021/12/17 19:43:20;;;;;;;16.13;6.10;;;;;;;;;;6254330;28;20100;-73
2021/12/17 19:46:25;;;;;;;22.63;6.18;;;;;;;;;;6255891;28;20017;-73
2021/12/17 19:52:26;;;;;;;11.48;5.25;;;;;;;;;;6239928;28;20026;-73
2021/12/17 19:55:26;;;;;;;14.63;5.75;;;;;;;;;;6242648;28;20057;-73
2021/12/17 19:58:26;;;;;;;14.27;4.82;;;;;;;;;;6243263;28;20026;-73
2021/12/17 20:01:28;;;;;;;14.60;7.18;;;;;;;;;;6255852;28;20048;-73
2021/12/17 20:04:29;;;;;;;15.80;5.88;;;;;;;;;;6239837;28;20030;-73
2021/12/17 20:07:29;;;;;;;14.80;7.13;;;;;;;;;;6235576;28;20076;-73
2021/12/17 20:10:30;;;;;;;20.15;6.25;;;;;;;;;;6238890;28;20395;-73
2021/12/17 20:13:30;;;;;;;16.58;7.03;;;;;;;;;;6244327;28;20092;-73
2021/12/17 20:16:31;;;;;;;18.67;5.72;;;;;;;;;;6245317;28;20049;-73
2021/12/17 20:19:31;;;;;;;16.73;5.32;;;;;;;;;;6244263;28;20018;-73
2021/12/17 20:22:31;;;;;;;16.23;5.28;;;;;;;;;;6243662;28;20021;-73
2021/12/17 20:25:32;;;;;;;14.98;5.50;;;;;;;;;;6244534;28;20089;-73
2021/12/17 20:28:34;;;;;;;15.88;5.50;;;;;;;;;;6244099;28;20028;-73
2021/12/17 20:31:35;;;;;;;16.60;5.93;;;;;;;;;;6243408;28;20091;-73
2021/12/17 20:34:36;;;;;;;20.13;6.90;;;;;;;;;;6242760;28;20477;-73
2021/12/17 20:37:37;;;;;;;16.63;7.38;;;;;;;;;;6239057;28;20109;-73
2021/12/17 20:40:39;;;;;;;19.27;7.70;;;;;;;;;;6231707;28;20215;-73
2021/12/17 20:43:43;;;;;;;;;;;;;;;;;;6244310;28;20086;-73
2021/12/17 20:46:44;;;;;;;17.75;6.95;;;;;;;;;;6244620;28;19916;-74
2021/12/17 20:49:45;;;;;;;16.63;6.25;;;;;;;;;;6242499;28;20017;-73
2021/12/17 20:52:45;;;;;;;13.88;5.82;;;;;;;;;;6244872;28;20021;-73
2021/12/17 20:55:45;;;;;;;12.40;6.32;;;;;;;;;;6242715;28;20021;-73
2021/12/17 20:58:46;;;;;;;15.00;6.43;;;;;;;;;;6243767;28;20489;-73
2021/12/17 21:01:47;;;;;;;18.25;9.10;;;;;;;;;;6243330;28;20057;-73
2021/12/17 21:04:47;;;;;;;20.15;7.25;;;;;;;;;;6237875;28;20018;-73
2021/12/17 21:07:48;;;;;;;22.52;6.93;;;;;;;;;;6240980;28;20044;-73
2021/12/17 21:10:49;;;;;;;17.25;6.80;;;;;;;;;;6242805;28;20377;-73